Time;durP1;ratioP1;P1;durP2;ratioP2;P2;SDS_P1;SDS_P2;PMS_P1;PMS_P2;Temp;Humidity;BMP_temperature;BMP_pressure;BME280_temperature;BME280_humidity;BME280_pressure;Samples;Min_cycle;Max_cycle;Signal;HPM_P1;HPM_P2
2023/11/15 00:01:51;;;;;;;6.05;5.15;;;18.30;72.40;;;;;;4958755;28;20055;-75
2023/11/15 00:04:19;;;;;;;8.25;5.05;;;18.30;72.40;;;;;;4968506;28;20092;-75
2023/11/15 00:06:45;;;;;;;6.38;5.03;;;18.30;72.50;;;;;;4966092;28;20501;-74
2023/11/15 00:09:10;;;;;;;5.55;4.82;;;18.20;72.30;;;;;;4966663;28;20053;-75
2023/11/15 00:11:36;;;;;;;6.05;4.82;;;18.20;72.40;;;;;;4980704;28;20049;-77
2023/11/15 00:14:02;;;;;;;7.15;5.40;;;18.20;72.60;;;;;;4966209;28;20117;-77
2023/11/15 00:16:28;;;;;;;7.47;5.18;;;18.20;72.60;;;;;;4963248;28;20573;-77
2023/11/15 00:18:54;;;;;;;5.22;4.55;;;18.20;72.60;;;;;;4963040;28;20462;-78
2023/11/15 00:21:20;;;;;;;5.88;4.72;;;18.20;72.50;;;;;;4964861;28;20149;-77
2023/11/15 00:23:45;;;;;;;6.70;4.75;;;18.30;72.70;;;;;;4963820;28;20133;-78
2023/11/15 00:26:11;;;;;;;5.47;4.90;;;18.20;72.70;;;;;;4959747;28;20038;-78
2023/11/15 00:28:39;;;;;;;4.95;4.47;;;18.20;72.60;;;;;;4965833;28;20047;-79
2023/11/15 00:31:05;;;;;;;4.93;4.10;;;18.20;72.50;;;;;;4965251;28;20043;-78
2023/11/15 00:33:30;;;;;;;4.80;4.35;;;18.20;72.60;;;;;;4964183;28;20520;-79
2023/11/15 00:35:56;;;;;;;4.65;4.22;;;18.20;72.60;;;;;;4950798;28;20054;-79
2023/11/15 00:38:22;;;;;;;6.55;4.30;;;18.20;72.70;;;;;;4964649;28;20046;-78
2023/11/15 00:40:47;;;;;;;5.88;4.38;;;18.20;72.60;;;;;;4964667;28;20050;-78
2023/11/15 00:43:15;;;;;;;6.05;4.07;;;18.20;72.70;;;;;;4967947;28;20043;-78
2023/11/15 00:45:40;;;;;;;5.05;4.20;;;18.20;72.60;;;;;;4966992;28;20055;-78
2023/11/15 00:48:06;;;;;;;4.65;4.00;;;18.20;72.70;;;;;;4963456;28;20153;-79
2023/11/15 00:50:31;;;;;;;4.80;4.20;;;18.10;72.60;;;;;;4965004;28;20030;-78
2023/11/15 00:52:58;;;;;;;4.88;4.38;;;18.10;72.60;;;;;;4965604;28;20047;-79
2023/11/15 00:55:24;;;;;;;4.78;4.25;;;18.10;72.60;;;;;;4964316;28;20135;-80
2023/11/15 00:57:50;;;;;;;4.25;3.85;;;18.10;72.60;;;;;;4967128;28;20121;-79
2023/11/15 01:00:23;;;;;;;5.88;4.13;;;18.10;72.60;;;;;;4960780;28;20047;-78
2023/11/15 01:02:50;;;;;;;6.18;4.63;;;18.10;72.70;;;;;;4965479;28;20042;-78
2023/11/15 01:05:17;;;;;;;4.78;4.22;;;18.10;72.60;;;;;;4967513;28;20054;-78
2023/11/15 01:07:42;;;;;;;5.30;3.75;;;18.10;72.60;;;;;;4978027;28;24810;-79
2023/11/15 01:10:09;;;;;;;5.32;3.75;;;18.10;72.60;;;;;;4969799;28;20526;-79
2023/11/15 01:12:35;;;;;;;4.82;3.53;;;18.10;72.60;;;;;;4970326;28;20055;-79
2023/11/15 01:15:01;;;;;;;4.45;4.05;;;18.10;72.70;;;;;;4967945;28;20386;-79
2023/11/15 01:17:28;;;;;;;4.30;3.90;;;18.10;72.60;;;;;;4967470;28;20043;-79
2023/11/15 01:19:54;;;;;;;4.70;3.38;;;18.10;72.60;;;;;;4971060;28;20035;-78
2023/11/15 01:22:19;;;;;;;3.78;3.47;;;18.10;72.60;;;;;;4957151;28;20030;-78
2023/11/15 01:24:45;;;;;;;3.75;3.42;;;18.10;72.60;;;;;;4970178;28;20529;-79
2023/11/15 01:27:11;;;;;;;4.75;3.50;;;18.00;72.50;;;;;;4969691;28;20085;-80
2023/11/15 01:29:36;;;;;;;3.83;3.50;;;18.00;72.50;;;;;;4969394;28;20536;-80
2023/11/15 01:32:02;;;;;;;4.85;3.70;;;18.00;72.60;;;;;;4968215;28;20062;-80
2023/11/15 01:34:28;;;;;;;3.60;3.30;;;18.00;72.60;;;;;;4952316;28;20049;-81
2023/11/15 01:36:54;;;;;;;3.55;3.25;;;18.00;73.60;;;;;;4971334;28;20404;-81
2023/11/15 01:39:20;;;;;;;4.10;3.67;;;18.00;72.90;;;;;;4967814;28;20072;-81
2023/11/15 01:41:50;;;;;;;4.10;2.97;;;18.00;72.60;;;;;;4969432;28;20039;-82
2023/11/15 01:44:16;;;;;;;5.32;3.28;;;18.00;72.80;;;;;;4970894;28;20066;-81
2023/11/15 01:46:42;;;;;;;3.53;3.22;;;18.00;72.60;;;;;;4959198;28;20077;-80
2023/11/15 01:49:08;;;;;;;4.15;3.42;;;18.00;72.50;;;;;;4967002;28;20035;-81
2023/11/15 01:51:34;;;;;;;3.35;3.05;;;18.00;72.60;;;;;;4966499;28;20043;-80
2023/11/15 01:54:00;;;;;;;3.60;3.30;;;18.00;72.60;;;;;;4966731;28;20043;-80
2023/11/15 01:56:25;;;;;;;3.40;3.10;;;18.00;73.30;;;;;;4967310;28;20030;-80
2023/11/15 01:58:51;;;;;;;3.70;2.85;;;18.00;73.30;;;;;;4968152;28;20043;-79
2023/11/15 02:01:16;;;;;;;3.40;3.10;;;18.00;72.50;;;;;;4969295;28;20141;-79
2023/11/15 02:03:43;;;;;;;3.83;2.90;;;18.00;72.50;;;;;;4965777;28;20042;-80
2023/11/15 02:06:09;;;;;;;3.20;3.00;;;18.00;72.50;;;;;;4968396;28;20789;-80
2023/11/15 02:08:34;;;;;;;3.13;2.83;;;18.00;72.70;;;;;;4964398;28;20042;-80
2023/11/15 02:11:00;;;;;;;2.80;2.60;;;18.00;72.60;;;;;;4967398;28;20133;-81
2023/11/15 02:13:26;;;;;;;2.97;2.67;;;18.00;72.50;;;;;;4965908;28;20134;-80
2023/11/15 02:15:58;;;;;;;3.50;3.20;;;18.00;72.60;;;;;;4949806;28;20039;-81
2023/11/15 02:18:25;;;;;;;2.90;2.65;;;18.00;72.50;;;;;;4965565;28;20144;-80
2023/11/15 02:20:51;;;;;;;3.20;2.90;;;18.00;72.50;;;;;;4965912;28;20042;-81
2023/11/15 02:23:19;;;;;;;4.38;3.08;;;18.00;72.60;;;;;;4966584;28;20476;-80
2023/11/15 02:25:45;;;;;;;3.58;3.28;;;17.90;72.50;;;;;;4950563;28;20050;-80
2023/11/15 02:28:11;;;;;;;4.60;3.03;;;17.90;72.60;;;;;;4964844;28;20042;-80
2023/11/15 02:30:37;;;;;;;4.38;3.08;;;18.00;72.60;;;;;;4964580;28;20043;-80
2023/11/15 02:33:02;;;;;;;2.75;2.55;;;17.90;72.60;;;;;;4967465;28;20038;-80
2023/11/15 02:35:28;;;;;;;2.97;2.53;;;17.90;72.50;;;;;;4967051;28;20461;-80
2023/11/15 02:37:53;;;;;;;3.35;3.05;;;17.90;72.50;;;;;;4966022;28;20050;-80
2023/11/15 02:40:19;;;;;;;3.05;2.80;;;17.90;72.70;;;;;;4968053;28;20489;-81
2023/11/15 02:42:44;;;;;;;2.83;2.50;;;17.90;72.50;;;;;;4967091;28;20047;-81
2023/11/15 02:45:10;;;;;;;3.03;2.65;;;17.90;72.50;;;;;;4967104;28;20054;-81
2023/11/15 02:47:36;;;;;;;3.00;2.60;;;17.90;72.60;;;;;;4965904;28;20039;-81
2023/11/15 02:50:01;;;;;;;3.65;3.03;;;17.90;73.30;;;;;;4950066;28;20047;-81
2023/11/15 02:52:27;;;;;;;3.08;2.75;;;17.90;72.50;;;;;;4935476;28;20062;-80
2023/11/15 02:54:54;;;;;;;2.47;2.28;;;17.90;72.50;;;;;;4961714;28;20035;-81
2023/11/15 02:57:19;;;;;;;2.92;2.67;;;17.90;72.50;;;;;;4963131;28;20034;-80
2023/11/15 02:59:45;;;;;;;2.80;2.53;;;17.90;72.50;;;;;;4948763;28;20046;-81
2023/11/15 03:02:10;;;;;;;2.50;2.30;;;17.90;72.50;;;;;;4966583;28;20047;-81
2023/11/15 03:04:36;;;;;;;3.65;2.80;;;17.90;72.50;;;;;;4966488;28;20101;-81
2023/11/15 03:07:02;;;;;;;2.45;2.05;;;17.90;72.50;;;;;;4966671;28;20090;-81
2023/11/15 03:09:28;;;;;;;2.20;2.00;;;17.90;72.50;;;;;;4965411;28;20038;-80
2023/11/15 03:11:53;;;;;;;2.83;2.58;;;17.80;72.40;;;;;;4965131;28;20449;-80
2023/11/15 03:14:19;;;;;;;2.70;2.50;;;17.80;72.40;;;;;;4965663;28;20039;-80
2023/11/15 03:16:44;;;;;;;3.03;2.55;;;17.80;72.40;;;;;;4967179;28;20035;-80
2023/11/15 03:19:10;;;;;;;2.45;2.28;;;17.90;72.50;;;;;;4966213;28;20047;-80
2023/11/15 03:21:35;;;;;;;3.08;2.40;;;17.80;72.40;;;;;;4965696;28;20042;-80
2023/11/15 03:24:02;;;;;;;2.38;2.17;;;17.90;72.60;;;;;;4965552;28;20432;-80
2023/11/15 03:26:27;;;;;;;2.40;2.20;;;17.80;73.20;;;;;;4965037;28;20037;-79
2023/11/15 03:28:53;;;;;;;2.80;2.50;;;17.80;72.50;;;;;;4949702;28;20121;-79
2023/11/15 03:31:18;;;;;;;3.25;2.40;;;17.80;72.50;;;;;;4967359;28;20035;-80
2023/11/15 03:33:47;;;;;;;2.40;2.08;;;17.80;72.40;;;;;;4965720;28;20058;-79
2023/11/15 03:36:12;;;;;;;2.60;2.17;;;17.80;72.40;;;;;;4964067;28;20047;-79
2023/11/15 03:38:38;;;;;;;2.22;2.13;;;17.80;72.40;;;;;;4964935;28;20050;-79
2023/11/15 03:41:04;;;;;;;2.20;2.00;;;17.80;72.50;;;;;;4968997;28;20046;-79
2023/11/15 03:43:30;;;;;;;2.75;2.55;;;17.80;72.40;;;;;;4970398;28;20051;-79
2023/11/15 03:45:55;;;;;;;2.30;2.13;;;17.80;72.40;;;;;;4968631;28;20039;-79
2023/11/15 03:48:21;;;;;;;2.75;2.30;;;17.80;72.40;;;;;;4966695;28;20043;-79
2023/11/15 03:50:47;;;;;;;2.92;2.00;;;17.80;72.40;;;;;;4962420;28;20528;-79
2023/11/15 03:53:12;;;;;;;2.75;2.15;;;17.80;72.40;;;;;;4965990;28;20523;-79
2023/11/15 03:55:38;;;;;;;2.40;2.20;;;17.80;72.40;;;;;;4963938;28;20552;-80
2023/11/15 03:58:04;;;;;;;2.75;2.08;;;17.80;72.50;;;;;;4966666;28;20055;-80
2023/11/15 04:00:29;;;;;;;2.10;1.80;;;17.80;73.20;;;;;;4963442;28;20047;-79
2023/11/15 04:02:55;;;;;;;2.15;1.95;;;17.80;72.30;;;;;;4965851;28;20070;-80
2023/11/15 04:05:20;;;;;;;2.05;1.90;;;17.80;72.40;;;;;;4966060;28;20043;-80
2023/11/15 04:07:46;;;;;;;1.77;1.67;;;17.80;73.20;;;;;;4964995;28;20109;-80
2023/11/15 04:10:12;;;;;;;1.90;1.80;;;17.80;72.30;;;;;;4979411;28;20133;-79
2023/11/15 04:12:38;;;;;;;2.28;2.08;;;17.80;72.30;;;;;;4966911;28;20417;-79
2023/11/15 04:15:04;;;;;;;1.98;1.88;;;17.80;72.40;;;;;;4964727;28;20540;-80
2023/11/15 04:17:30;;;;;;;2.17;1.98;;;17.70;72.40;;;;;;4966190;28;20057;-79
2023/11/15 04:19:55;;;;;;;1.90;1.80;;;17.80;72.40;;;;;;4964463;28;20043;-79
2023/11/15 04:22:21;;;;;;;2.08;1.52;;;17.80;73.10;;;;;;4965092;28;20508;-80
2023/11/15 04:24:47;;;;;;;2.03;1.83;;;17.70;72.30;;;;;;4967267;28;20055;-80
2023/11/15 04:27:13;;;;;;;2.72;1.60;;;17.70;72.30;;;;;;4967440;28;20489;-80
2023/11/15 04:29:42;;;;;;;2.20;2.00;;;17.70;72.30;;;;;;4964507;28;20047;-80
2023/11/15 04:32:08;;;;;;;2.10;1.67;;;17.70;72.30;;;;;;4965864;28;20493;-80
2023/11/15 04:34:33;;;;;;;1.60;1.48;;;17.70;72.30;;;;;;4966864;28;20038;-80
2023/11/15 04:36:59;;;;;;;1.60;1.50;;;17.70;72.30;;;;;;4965306;28;20041;-80
2023/11/15 04:39:24;;;;;;;2.67;2.20;;;17.70;72.30;;;;;;4968174;28;20560;-80
2023/11/15 04:41:53;;;;;;;2.17;1.98;;;17.70;72.10;;;;;;4969282;28;20039;-80
2023/11/15 04:44:20;;;;;;;1.98;1.88;;;17.70;72.10;;;;;;4970629;28;20035;-80
2023/11/15 04:46:46;;;;;;;1.80;1.70;;;17.70;72.20;;;;;;4969800;28;20042;-80
2023/11/15 04:49:12;;;;;;;1.80;1.70;;;17.70;72.20;;;;;;4970665;28;20050;-80
2023/11/15 04:51:38;;;;;;;3.20;1.80;;;17.70;72.10;;;;;;4970966;28;20058;-80
2023/11/15 04:54:03;;;;;;;2.22;2.03;;;17.70;72.20;;;;;;4970398;28;20051;-80
2023/11/15 04:56:29;;;;;;;2.08;1.88;;;17.70;72.10;;;;;;4970723;28;20491;-80
2023/11/15 04:58:55;;;;;;;1.90;1.70;;;17.70;72.30;;;;;;4967882;28;20703;-79
2023/11/15 05:01:20;;;;;;;2.08;1.63;;;17.70;72.10;;;;;;4971260;28;20046;-78
2023/11/15 05:03:46;;;;;;;2.08;1.73;;;17.70;72.10;;;;;;4970342;28;20094;-79
2023/11/15 05:06:12;;;;;;;2.38;1.85;;;17.70;72.20;;;;;;4969420;28;20074;-77
2023/11/15 05:08:37;;;;;;;1.60;1.42;;;17.70;72.20;;;;;;4967650;28;20520;-77
2023/11/15 05:11:03;;;;;;;2.55;1.67;;;17.70;72.20;;;;;;4951483;28;20114;-77
2023/11/15 05:13:29;;;;;;;1.83;1.38;;;17.70;72.10;;;;;;4970366;28;20047;-76
2023/11/15 05:15:56;;;;;;;1.40;1.30;;;17.70;72.30;;;;;;4967836;28;20053;-78
2023/11/15 05:18:21;;;;;;;1.98;1.60;;;17.70;72.30;;;;;;4964487;28;20189;-78
2023/11/15 05:20:47;;;;;;;2.15;1.67;;;17.70;72.20;;;;;;4969146;28;20134;-79
2023/11/15 05:23:12;;;;;;;2.47;1.80;;;17.70;72.30;;;;;;4970292;28;20057;-78
2023/11/15 05:25:40;;;;;;;1.83;1.60;;;17.70;72.10;;;;;;4969380;28;20532;-78
2023/11/15 05:28:05;;;;;;;2.10;1.80;;;17.70;72.20;;;;;;4971702;28;20045;-79
2023/11/15 05:30:31;;;;;;;1.67;1.58;;;17.70;72.20;;;;;;4971521;28;20038;-79
2023/11/15 05:32:57;;;;;;;1.67;1.42;;;17.70;72.30;;;;;;4968918;28;20047;-79
2023/11/15 05:35:23;;;;;;;2.22;1.80;;;17.70;72.30;;;;;;4969325;28;20035;-79
2023/11/15 05:37:48;;;;;;;1.60;1.50;;;17.70;72.30;;;;;;4970042;28;20453;-79
2023/11/15 05:40:15;;;;;;;3.38;1.33;;;17.70;72.30;;;;;;4971982;28;20540;-78
2023/11/15 05:42:41;;;;;;;1.50;1.40;;;17.70;72.20;;;;;;4967388;28;20524;-78
2023/11/15 05:45:09;;;;;;;1.75;1.65;;;17.70;72.30;;;;;;4968439;28;20054;-78
2023/11/15 05:47:35;;;;;;;2.78;1.45;;;17.60;72.30;;;;;;4968288;28;20841;-79
2023/11/15 05:50:00;;;;;;;1.92;1.50;;;17.70;72.30;;;;;;4965730;28;20042;-80
2023/11/15 05:52:26;;;;;;;1.50;1.40;;;17.70;72.30;;;;;;4967664;28;20421;-79
2023/11/15 05:54:52;;;;;;;1.60;1.50;;;17.70;72.30;;;;;;4966924;28;20074;-79
2023/11/15 05:57:20;;;;;;;1.67;1.58;;;17.70;73.00;;;;;;4970584;28;20398;-79
2023/11/15 05:59:45;;;;;;;1.38;1.25;;;17.70;72.30;;;;;;4968836;28;20051;-80
2023/11/15 06:02:11;;;;;;;1.50;1.40;;;17.60;72.30;;;;;;4968622;28;20055;-79
2023/11/15 06:04:36;;;;;;;2.53;1.67;;;17.60;72.30;;;;;;4967024;28;20113;-78
2023/11/15 06:07:02;;;;;;;1.60;1.50;;;17.60;72.30;;;;;;4969914;28;20046;-80
2023/11/15 06:09:29;;;;;;;2.15;1.40;;;17.60;73.00;;;;;;4968770;28;20134;-79
2023/11/15 06:11:54;;;;;;;2.05;1.48;;;17.70;72.60;;;;;;4968915;28;20408;-80
2023/11/15 06:14:20;;;;;;;2.67;1.45;;;17.70;72.40;;;;;;4969384;28;20031;-80
2023/11/15 06:16:46;;;;;;;1.88;1.60;;;17.70;72.70;;;;;;4963348;28;20452;-79
2023/11/15 06:19:12;;;;;;;2.45;1.48;;;17.70;72.70;;;;;;4965058;28;20520;-81
2023/11/15 06:21:41;;;;;;;4.03;1.58;;;17.70;73.20;;;;;;4966967;28;20105;-80
2023/11/15 06:24:07;;;;;;;1.80;1.30;;;17.60;72.90;;;;;;4961749;28;20031;-80
2023/11/15 06:26:38;;;;;;;2.17;1.30;;;17.60;72.90;;;;;;4965978;28;20509;-81
2023/11/15 06:29:05;;;;;;;2.85;1.73;;;17.60;72.90;;;;;;4959861;28;20142;-79
2023/11/15 06:31:36;;;;;;;2.45;1.55;;;17.70;75.30;;;;;;4965886;28;20042;-80
2023/11/15 06:34:02;;;;;;;3.38;1.50;;;17.70;74.20;;;;;;4964990;28;20423;-80
2023/11/15 06:36:28;;;;;;;1.40;1.30;;;17.70;74.00;;;;;;4961817;28;20505;-81
2023/11/15 06:38:54;;;;;;;1.98;1.50;;;17.70;74.20;;;;;;4961579;28;20058;-81
2023/11/15 06:41:20;;;;;;;2.22;1.45;;;17.80;74.70;;;;;;4968469;28;20050;-83
2023/11/15 06:43:45;;;;;;;2.40;1.42;;;17.80;75.40;;;;;;4965584;28;20053;-82
2023/11/15 06:46:17;;;;;;;3.45;1.33;;;17.80;75.10;;;;;;4623086;28;10000453;-81
2023/11/15 06:48:43;;;;;;;1.30;1.15;;;17.90;75.10;;;;;;4961734;28;20067;-81
2023/11/15 06:51:09;;;;;;;2.22;1.60;;;17.80;74.70;;;;;;4957831;28;20049;-82
2023/11/15 06:53:35;;;;;;;2.03;1.77;;;17.80;74.60;;;;;;4941956;28;20049;-81
2023/11/15 06:56:00;;;;;;;1.40;1.10;;;17.80;74.70;;;;;;4946119;28;20051;-81
2023/11/15 06:58:26;;;;;;;2.00;1.45;;;17.80;74.60;;;;;;4969893;28;20117;-82
2023/11/15 07:00:54;;;;;;;1.70;1.13;;;17.80;74.80;;;;;;4963148;28;20082;-81
2023/11/15 07:03:22;;;;;;;2.50;1.83;;;17.80;75.30;;;;;;4959461;28;20039;-82
2023/11/15 07:05:48;;;;;;;1.83;1.55;;;17.80;75.90;;;;;;4963030;28;20185;-82
2023/11/15 07:08:16;;;;;;;1.70;1.60;;;17.90;74.90;;;;;;4964308;28;20039;-82
2023/11/15 07:10:42;;;;;;;1.60;1.50;;;17.80;74.90;;;;;;4958483;28;20105;-82
2023/11/15 07:13:09;;;;;;;1.45;1.35;;;17.90;76.50;;;;;;4965104;28;20070;-83
2023/11/15 07:15:38;;;;;;;2.30;1.33;;;17.90;75.60;;;;;;4964505;28;20122;-82
2023/11/15 07:18:03;;;;;;;2.67;1.17;;;18.00;75.30;;;;;;4962567;28;20046;-81
2023/11/15 07:20:29;;;;;;;1.77;1.27;;;18.00;75.20;;;;;;4962462;28;20894;-82
2023/11/15 07:22:55;;;;;;;1.45;1.15;;;18.00;75.30;;;;;;4963730;28;20050;-81
2023/11/15 07:25:20;;;;;;;1.52;1.42;;;18.00;75.00;;;;;;4961280;28;20047;-82
2023/11/15 07:27:46;;;;;;;1.00;0.90;;;18.00;75.10;;;;;;4956050;28;20136;-82
2023/11/15 07:30:13;;;;;;;1.70;1.13;;;18.00;75.10;;;;;;4961927;28;20595;-83
2023/11/15 07:32:39;;;;;;;1.55;1.45;;;18.00;75.10;;;;;;4960757;28;20065;-83
2023/11/15 07:35:05;;;;;;;1.42;1.30;;;18.00;75.50;;;;;;4946786;28;20138;-82
2023/11/15 07:37:31;;;;;;;1.65;1.40;;;18.00;76.20;;;;;;4952821;28;20441;-78
2023/11/15 07:39:57;;;;;;;1.40;1.30;;;18.00;76.20;;;;;;4951346;28;20047;-79
2023/11/15 07:42:24;;;;;;;1.63;1.52;;;18.00;76.50;;;;;;4963552;28;20046;-82
2023/11/15 07:44:50;;;;;;;2.17;1.30;;;18.00;76.70;;;;;;4962347;28;20038;-81
2023/11/15 07:47:17;;;;;;;1.48;1.38;;;18.00;76.70;;;;;;4966937;28;20038;-81
2023/11/15 07:49:43;;;;;;;1.45;1.25;;;18.00;76.20;;;;;;4963243;28;20051;-80
2023/11/15 07:52:08;;;;;;;2.80;1.38;;;18.00;78.90;;;;;;4963864;28;20058;-82
2023/11/15 07:54:34;;;;;;;1.13;1.05;;;18.00;77.90;;;;;;4965406;28;20038;-79
2023/11/15 07:57:00;;;;;;;1.83;1.60;;;18.00;76.60;;;;;;4965184;28;20042;-80
2023/11/15 07:59:26;;;;;;;1.20;1.10;;;17.90;76.10;;;;;;4964089;28;20141;-80
2023/11/15 08:01:52;;;;;;;3.95;1.30;;;17.90;75.80;;;;;;4962945;28;20039;-80
2023/11/15 08:04:20;;;;;;;2.17;1.33;;;17.90;75.70;;;;;;4963051;28;20118;-82
2023/11/15 08:06:47;;;;;;;2.00;1.23;;;17.90;75.40;;;;;;4967267;28;21555;-83
2023/11/15 08:09:24;;;;;;;2.25;1.23;;;17.90;75.30;;;;;;4964849;28;20071;-81
2023/11/15 08:11:55;;;;;;;1.27;1.05;;;17.90;75.30;;;;;;4963379;28;20051;-82
2023/11/15 08:14:21;;;;;;;1.48;1.33;;;17.90;75.00;;;;;;4964703;28;20046;-83
2023/11/15 08:16:48;;;;;;;1.40;1.30;;;17.90;74.90;;;;;;4963089;28;20046;-82
2023/11/15 08:19:14;;;;;;;1.10;1.00;;;17.90;76.60;;;;;;4965927;28;20536;-81
2023/11/15 08:21:39;;;;;;;1.45;1.00;;;17.90;75.50;;;;;;4964880;28;20046;-80
2023/11/15 08:24:06;;;;;;;1.80;1.10;;;17.90;77.10;;;;;;4965971;28;20054;-81
2023/11/15 08:26:33;;;;;;;1.48;1.10;;;18.00;76.20;;;;;;4963859;28;20516;-82
2023/11/15 08:28:58;;;;;;;2.40;1.02;;;18.00;76.40;;;;;;4964813;28;20125;-84
2023/11/15 08:31:25;;;;;;;2.13;1.27;;;18.00;75.70;;;;;;4964479;28;20039;-83
2023/11/15 08:33:51;;;;;;;2.78;1.35;;;18.00;76.10;;;;;;4963717;28;20520;-85
2023/11/15 08:36:16;;;;;;;0.80;0.80;;;18.00;75.20;;;;;;4965603;28;20046;-86
2023/11/15 08:38:42;;;;;;;1.60;1.08;;;18.00;75.10;;;;;;4968967;28;21383;-85
2023/11/15 08:41:09;;;;;;;1.40;1.27;;;18.00;75.10;;;;;;4967228;28;20050;-84
2023/11/15 08:43:34;;;;;;;2.10;1.35;;;17.90;75.00;;;;;;4966461;28;20042;-85
2023/11/15 08:46:02;;;;;;;1.10;0.90;;;18.00;75.00;;;;;;4964601;28;20050;-83
2023/11/15 08:48:28;;;;;;;2.05;1.00;;;18.00;75.00;;;;;;4949275;28;20057;-83
2023/11/15 08:50:54;;;;;;;1.80;1.13;;;17.90;75.00;;;;;;4965471;28;20050;-83
2023/11/15 08:53:25;;;;;;;1.38;1.05;;;17.90;74.90;;;;;;4965560;28;20047;-83
2023/11/15 08:55:50;;;;;;;2.88;1.00;;;17.90;74.90;;;;;;4963137;28;20047;-82
2023/11/15 08:58:16;;;;;;;1.40;1.30;;;17.90;75.00;;;;;;4962618;28;20118;-84
2023/11/15 09:00:43;;;;;;;1.58;1.20;;;18.00;75.10;;;;;;4943930;28;20050;-83
2023/11/15 09:03:14;;;;;;;1.83;1.30;;;18.00;75.20;;;;;;4960211;28;20117;-81
2023/11/15 09:05:43;;;;;;;1.02;1.00;;;18.00;75.20;;;;;;4959741;28;20109;-82
2023/11/15 09:08:10;;;;;;;0.82;0.80;;;18.00;76.30;;;;;;4980425;28;20121;-81
2023/11/15 09:10:36;;;;;;;2.08;0.93;;;18.00;75.40;;;;;;4964109;28;20058;-80
2023/11/15 09:13:01;;;;;;;1.08;0.98;;;18.10;75.00;;;;;;4960923;28;20059;-81
2023/11/15 09:15:30;;;;;;;1.10;1.00;;;18.10;75.00;;;;;;4964977;28;20035;-81
2023/11/15 09:17:56;;;;;;;1.10;0.68;;;18.10;75.00;;;;;;4963475;28;20043;-80
2023/11/15 09:20:29;;;;;;;1.38;1.30;;;18.10;75.10;;;;;;4929936;28;20622;-80
2023/11/15 09:22:54;;;;;;;1.88;1.23;;;18.10;75.10;;;;;;4962067;28;20035;-81
2023/11/15 09:25:24;;;;;;;1.80;0.93;;;18.10;75.00;;;;;;4969785;28;20054;-80
2023/11/15 09:27:52;;;;;;;0.68;0.60;;;18.10;74.90;;;;;;4967541;28;20442;-81
2023/11/15 09:30:18;;;;;;;0.80;0.77;;;18.10;74.90;;;;;;4950110;28;20053;-80
2023/11/15 09:32:50;;;;;;;1.20;1.10;;;18.10;74.70;;;;;;4965592;28;20047;-82
2023/11/15 09:35:21;;;;;;;2.15;1.00;;;18.10;74.60;;;;;;4966131;28;20070;-81
2023/11/15 09:37:47;;;;;;;2.35;0.90;;;18.20;74.50;;;;;;4966128;28;20125;-80
2023/11/15 09:40:13;;;;;;;3.25;0.90;;;18.30;74.20;;;;;;4965749;28;20047;-81
2023/11/15 09:42:44;;;;;;;1.48;1.00;;;18.30;74.00;;;;;;4966270;28;20098;-82
2023/11/15 09:45:17;;;;;;;1.65;1.10;;;18.40;73.70;;;;;;4963913;28;20041;-82
2023/11/15 09:47:44;;;;;;;1.33;0.85;;;18.30;73.90;;;;;;4969806;28;20082;-82
2023/11/15 09:50:11;;;;;;;1.10;0.95;;;18.40;73.80;;;;;;4949796;28;20057;-82
2023/11/15 09:52:38;;;;;;;0.77;0.77;;;18.30;73.60;;;;;;4962887;28;20043;-82
2023/11/15 09:55:04;;;;;;;1.17;0.90;;;18.40;73.80;;;;;;4950324;28;20043;-81
2023/11/15 09:57:30;;;;;;;1.25;0.90;;;18.40;74.50;;;;;;4967954;28;20043;-82
2023/11/15 09:59:55;;;;;;;1.38;0.77;;;18.40;73.80;;;;;;4966573;28;20061;-82
2023/11/15 10:02:23;;;;;;;1.20;0.80;;;18.40;73.50;;;;;;4983928;28;20057;-82
2023/11/15 10:04:54;;;;;;;1.83;1.00;;;18.40;73.50;;;;;;4952128;28;20529;-82
2023/11/15 10:07:23;;;;;;;0.88;0.80;;;18.40;73.50;;;;;;4968605;28;20031;-83
2023/11/15 10:09:50;;;;;;;1.67;0.75;;;18.40;73.40;;;;;;4968239;28;20057;-82
2023/11/15 10:12:16;;;;;;;2.40;0.85;;;18.50;73.40;;;;;;4963609;28;20028;-82
2023/11/15 10:14:51;;;;;;;2.15;0.63;;;18.50;73.20;;;;;;4969013;28;20038;-81
2023/11/15 10:17:16;;;;;;;0.93;0.70;;;18.50;73.30;;;;;;4966307;28;20046;-83
2023/11/15 10:19:43;;;;;;;0.90;0.80;;;18.50;73.20;;;;;;4951227;28;20054;-82
2023/11/15 10:22:14;;;;;;;1.50;0.80;;;18.50;73.20;;;;;;4968252;28;20082;-82
2023/11/15 10:24:39;;;;;;;1.02;0.77;;;18.50;73.20;;;;;;4967908;28;20046;-82
2023/11/15 10:27:08;;;;;;;2.08;0.80;;;18.50;73.20;;;;;;4947917;28;20508;-82
2023/11/15 10:29:37;;;;;;;0.57;0.57;;;18.50;73.20;;;;;;4968274;28;20043;-82
2023/11/15 10:32:04;;;;;;;0.60;0.50;;;18.60;73.00;;;;;;4963240;28;20114;-83
2023/11/15 10:34:32;;;;;;;0.70;0.70;;;18.50;72.80;;;;;;4964395;28;20051;-83
2023/11/15 10:37:10;;;;;;;1.77;0.63;;;18.60;72.90;;;;;;4964025;28;20173;-82
2023/11/15 10:39:46;;;;;;;1.05;0.70;;;18.60;72.90;;;;;;4965678;28;20047;-81
2023/11/15 10:42:13;;;;;;;1.42;0.45;;;18.60;72.90;;;;;;4967120;28;20055;-82
2023/11/15 10:44:39;;;;;;;1.05;0.70;;;18.60;73.00;;;;;;4966562;28;20062;-80
2023/11/15 10:47:08;;;;;;;1.30;0.55;;;18.70;72.90;;;;;;4966085;28;20053;-81
2023/11/15 10:49:43;;;;;;;1.63;0.93;;;18.70;72.70;;;;;;4966240;28;20416;-81
2023/11/15 10:52:09;;;;;;;4.10;1.20;;;18.70;72.80;;;;;;4963936;28;20095;-83
2023/11/15 10:54:35;;;;;;;1.92;0.90;;;18.70;73.60;;;;;;4964781;28;20423;-83
2023/11/15 10:57:02;;;;;;;173.23;94.07;;;18.70;73.70;;;;;;4964808;28;20047;-84
2023/11/15 10:59:29;;;;;;;219.13;130.77;;;18.70;74.40;;;;;;4963292;28;20101;-84
2023/11/15 11:01:55;;;;;;;201.23;122.07;;;18.70;74.60;;;;;;4962622;28;20047;-83
2023/11/15 11:04:22;;;;;;;138.93;84.55;;;18.80;77.10;;;;;;4967215;28;20580;-83
2023/11/15 11:07:04;;;;;;;94.80;57.85;;;18.80;74.60;;;;;;4965713;28;20051;-82
2023/11/15 11:09:30;;;;;;;83.70;51.20;;;18.80;74.30;;;;;;4965862;28;21189;-82
2023/11/15 11:12:05;;;;;;;74.68;44.85;;;18.90;74.20;;;;;;4981221;28;20573;-82
2023/11/15 11:14:31;;;;;;;66.05;40.10;;;18.80;74.10;;;;;;4933797;28;20556;-83
2023/11/15 11:16:57;;;;;;;58.95;37.88;;;18.80;74.00;;;;;;4965286;28;20055;-82
2023/11/15 11:19:24;;;;;;;56.50;35.47;;;18.80;74.00;;;;;;4951454;28;20043;-82
2023/11/15 11:22:03;;;;;;;54.03;35.17;;;18.80;74.00;;;;;;4983446;28;20073;-82
2023/11/15 11:25:06;;;;;;;53.72;33.65;;;18.90;73.90;;;;;;4966354;28;20043;-82
2023/11/15 11:27:33;;;;;;;53.03;32.50;;;18.90;73.80;;;;;;4963739;28;20065;-82
2023/11/15 11:30:00;;;;;;;48.40;28.38;;;18.80;73.90;;;;;;4964265;28;20085;-82
2023/11/15 11:32:34;;;;;;;47.15;29.52;;;18.80;74.00;;;;;;4967773;28;20078;-83
2023/11/15 11:35:30;;;;;;;43.63;27.48;;;18.80;74.00;;;;;;4964056;28;20049;-81
2023/11/15 11:37:53;;;;;;;45.17;28.98;;;18.80;74.10;;;;;;4963008;28;20047;-81
2023/11/15 11:40:38;;;;;;;45.50;27.90;;;18.80;74.00;;;;;;4966086;28;20050;-82
2023/11/15 11:43:22;;;;;;;45.30;29.00;;;18.80;73.90;;;;;;4964801;28;20034;-82
2023/11/15 11:45:53;;;;;;;46.42;28.70;;;18.90;74.10;;;;;;4966618;28;20062;-82
2023/11/15 11:48:25;;;;;;;44.17;27.42;;;18.90;74.90;;;;;;4963772;28;20078;-83
2023/11/15 11:51:05;;;;;;;42.58;26.67;;;19.00;74.90;;;;;;4600752;28;10000519;-84
2023/11/15 11:53:39;;;;;;;39.97;25.98;;;19.00;75.40;;;;;;4959283;28;20057;-83
2023/11/15 11:56:09;;;;;;;36.72;24.70;;;19.00;75.30;;;;;;4943089;28;20043;-85
2023/11/15 11:58:36;;;;;;;42.15;26.25;;;18.90;75.30;;;;;;4961315;28;20594;-83
2023/11/15 12:01:05;;;;;;;37.63;23.67;;;18.90;75.70;;;;;;4960437;28;20058;-82
2023/11/15 12:03:35;;;;;;;41.45;25.33;;;18.90;75.40;;;;;;4958191;28;20127;-86
2023/11/15 12:06:08;;;;;;;39.13;25.08;;;18.90;75.10;;;;;;4943866;28;20051;-86
2023/11/15 12:08:35;;;;;;;36.42;23.63;;;19.00;74.70;;;;;;4929169;28;20054;-86
2023/11/15 12:11:01;;;;;;;35.13;22.85;;;18.90;74.20;;;;;;4964248;28;20054;-87
2023/11/15 12:13:40;;;;;;;37.92;24.48;;;18.90;74.00;;;;;;4944725;28;20043;-85
2023/11/15 12:16:13;;;;;;;32.55;21.85;;;19.00;73.70;;;;;;4963435;28;20101;-86
2023/11/15 12:18:38;;;;;;;35.35;24.33;;;19.00;73.50;;;;;;4958199;28;20047;-86
2023/11/15 12:21:05;;;;;;;33.65;22.83;;;19.00;73.40;;;;;;4958358;28;20094;-86
2023/11/15 12:23:30;;;;;;;33.25;23.27;;;19.00;73.20;;;;;;4954502;28;20807;-86
2023/11/15 12:25:56;;;;;;;35.17;21.80;;;19.00;73.20;;;;;;4958275;28;20162;-83
2023/11/15 12:28:25;;;;;;;31.48;20.60;;;19.00;73.20;;;;;;4962635;28;20035;-84
2023/11/15 12:30:57;;;;;;;31.10;21.30;;;19.00;73.20;;;;;;4963446;28;20535;-85
2023/11/15 12:33:23;;;;;;;30.15;21.50;;;19.00;73.00;;;;;;4958267;28;20547;-84
2023/11/15 12:35:51;;;;;;;29.42;20.30;;;19.00;72.90;;;;;;4960191;28;20046;-85
2023/11/15 12:38:17;;;;;;;31.17;20.80;;;18.90;72.80;;;;;;4962430;28;20105;-86
2023/11/15 12:40:44;;;;;;;33.38;21.80;;;19.00;73.00;;;;;;4960236;28;20600;-83
2023/11/15 12:43:22;;;;;;;31.75;20.60;;;19.00;72.80;;;;;;4963371;28;20047;-83